sensor_id;sensor_type;location;lat;lon;timestamp;temperature;humidity
5938;DHT22;2994;51.220;4.412;2023-06-22T00:01:11;24.56;49.47
5938;DHT22;2994;51.220;4.412;2023-06-22T00:03:36;24.56;49.64
5938;DHT22;2994;51.220;4.412;2023-06-22T00:06:01;24.54;49.83
5938;DHT22;2994;51.220;4.412;2023-06-22T00:08:27;24.53;49.91
5938;DHT22;2994;51.220;4.412;2023-06-22T00:10:52;24.50;50.07
5938;DHT22;2994;51.220;4.412;2023-06-22T00:13:18;24.47;50.27
5938;DHT22;2994;51.220;4.412;2023-06-22T00:15:44;24.45;50.55
5938;DHT22;2994;51.220;4.412;2023-06-22T00:18:10;24.44;50.48
5938;DHT22;2994;51.220;4.412;2023-06-22T00:20:36;24.43;50.28
5938;DHT22;2994;51.220;4.412;2023-06-22T00:23:03;24.41;51.17
5938;DHT22;2994;51.220;4.412;2023-06-22T00:25:37;24.40;50.42
5938;DHT22;2994;51.220;4.412;2023-06-22T00:28:05;24.39;50.50
5938;DHT22;2994;51.220;4.412;2023-06-22T00:30:31;24.38;50.30
5938;DHT22;2994;51.220;4.412;2023-06-22T00:32:58;24.33;50.51
5938;DHT22;2994;51.220;4.412;2023-06-22T00:35:24;24.33;50.29
5938;DHT22;2994;51.220;4.412;2023-06-22T00:37:54;24.31;50.45
5938;DHT22;2994;51.220;4.412;2023-06-22T00:40:26;24.31;50.30
5938;DHT22;2994;51.220;4.412;2023-06-22T00:42:52;24.27;50.45
5938;DHT22;2994;51.220;4.412;2023-06-22T00:45:17;24.27;50.10
5938;DHT22;2994;51.220;4.412;2023-06-22T00:47:43;24.24;50.90
5938;DHT22;2994;51.220;4.412;2023-06-22T00:50:13;24.21;50.86
5938;DHT22;2994;51.220;4.412;2023-06-22T00:52:43;24.18;50.85
5938;DHT22;2994;51.220;4.412;2023-06-22T00:55:11;24.16;50.69
5938;DHT22;2994;51.220;4.412;2023-06-22T00:57:37;24.15;50.99
5938;DHT22;2994;51.220;4.412;2023-06-22T01:00:03;24.12;51.10
5938;DHT22;2994;51.220;4.412;2023-06-22T01:02:32;24.11;51.02
5938;DHT22;2994;51.220;4.412;2023-06-22T01:04:57;24.09;51.05
5938;DHT22;2994;51.220;4.412;2023-06-22T01:07:35;24.05;51.10
5938;DHT22;2994;51.220;4.412;2023-06-22T01:10:07;24.04;50.82
5938;DHT22;2994;51.220;4.412;2023-06-22T01:12:39;24.00;50.95
5938;DHT22;2994;51.220;4.412;2023-06-22T01:15:21;23.98;51.98
5938;DHT22;2994;51.220;4.412;2023-06-22T01:17:48;23.97;51.71
5938;DHT22;2994;51.220;4.412;2023-06-22T01:20:15;23.97;52.01
5938;DHT22;2994;51.220;4.412;2023-06-22T01:23:20;23.92;52.11
5938;DHT22;2994;51.220;4.412;2023-06-22T01:26:02;23.89;52.20
5938;DHT22;2994;51.220;4.412;2023-06-22T01:28:43;23.87;52.03
5938;DHT22;2994;51.220;4.412;2023-06-22T01:31:18;23.86;52.14
5938;DHT22;2994;51.220;4.412;2023-06-22T01:33:48;23.84;52.20
5938;DHT22;2994;51.220;4.412;2023-06-22T01:36:14;23.82;52.41
5938;DHT22;2994;51.220;4.412;2023-06-22T01:38:42;23.79;51.97
5938;DHT22;2994;51.220;4.412;2023-06-22T01:41:08;23.77;53.07
5938;DHT22;2994;51.220;4.412;2023-06-22T01:43:35;23.76;52.23
5938;DHT22;2994;51.220;4.412;2023-06-22T01:46:02;23.72;52.49
5938;DHT22;2994;51.220;4.412;2023-06-22T01:48:28;23.71;52.00
5938;DHT22;2994;51.220;4.412;2023-06-22T01:50:54;23.70;52.20
5938;DHT22;2994;51.220;4.412;2023-06-22T01:53:24;23.67;51.75
5938;DHT22;2994;51.220;4.412;2023-06-22T01:55:49;23.66;51.81
5938;DHT22;2994;51.220;4.412;2023-06-22T01:58:15;23.65;51.98
5938;DHT22;2994;51.220;4.412;2023-06-22T02:00:45;23.62;51.64
5938;DHT22;2994;51.220;4.412;2023-06-22T02:03:21;23.60;51.24
5938;DHT22;2994;51.220;4.412;2023-06-22T02:06:08;23.58;51.67
5938;DHT22;2994;51.220;4.412;2023-06-22T02:08:46;23.55;52.29
5938;DHT22;2994;51.220;4.412;2023-06-22T02:11:13;23.53;51.99
5938;DHT22;2994;51.220;4.412;2023-06-22T02:13:40;23.50;51.47
5938;DHT22;2994;51.220;4.412;2023-06-22T02:16:10;23.46;51.70
5938;DHT22;2994;51.220;4.412;2023-06-22T02:18:36;23.45;52.62
5938;DHT22;2994;51.220;4.412;2023-06-22T02:21:02;23.42;52.23
5938;DHT22;2994;51.220;4.412;2023-06-22T02:23:28;23.41;52.24
5938;DHT22;2994;51.220;4.412;2023-06-22T02:25:53;23.40;52.05
5938;DHT22;2994;51.220;4.412;2023-06-22T02:28:19;23.39;52.37
5938;DHT22;2994;51.220;4.412;2023-06-22T02:30:44;23.37;52.48
5938;DHT22;2994;51.220;4.412;2023-06-22T02:33:10;23.37;52.54
5938;DHT22;2994;51.220;4.412;2023-06-22T02:35:35;23.35;52.37
5938;DHT22;2994;51.220;4.412;2023-06-22T02:38:02;23.32;52.36
5938;DHT22;2994;51.220;4.412;2023-06-22T02:40:29;23.29;52.78
5938;DHT22;2994;51.220;4.412;2023-06-22T02:42:55;23.27;52.89
5938;DHT22;2994;51.220;4.412;2023-06-22T02:45:20;23.25;53.52
5938;DHT22;2994;51.220;4.412;2023-06-22T02:47:46;23.24;53.12
5938;DHT22;2994;51.220;4.412;2023-06-22T02:50:13;23.21;52.80
5938;DHT22;2994;51.220;4.412;2023-06-22T02:52:39;23.20;52.79
5938;DHT22;2994;51.220;4.412;2023-06-22T02:55:05;23.17;53.07
5938;DHT22;2994;51.220;4.412;2023-06-22T02:57:32;23.17;52.99
5938;DHT22;2994;51.220;4.412;2023-06-22T02:59:59;23.15;53.62
5938;DHT22;2994;51.220;4.412;2023-06-22T03:02:24;23.14;53.28
5938;DHT22;2994;51.220;4.412;2023-06-22T03:04:51;23.12;53.27
5938;DHT22;2994;51.220;4.412;2023-06-22T03:07:19;23.11;53.55
5938;DHT22;2994;51.220;4.412;2023-06-22T03:09:44;23.10;53.46
5938;DHT22;2994;51.220;4.412;2023-06-22T03:12:10;23.08;53.65
5938;DHT22;2994;51.220;4.412;2023-06-22T03:14:36;23.08;53.88
5938;DHT22;2994;51.220;4.412;2023-06-22T03:17:01;23.06;54.28
5938;DHT22;2994;51.220;4.412;2023-06-22T03:19:29;23.01;53.83
5938;DHT22;2994;51.220;4.412;2023-06-22T03:21:59;23.00;54.08
5938;DHT22;2994;51.220;4.412;2023-06-22T03:24:25;23.01;54.52
5938;DHT22;2994;51.220;4.412;2023-06-22T03:26:54;22.99;54.58
5938;DHT22;2994;51.220;4.412;2023-06-22T03:29:20;22.97;54.66
5938;DHT22;2994;51.220;4.412;2023-06-22T03:31:45;22.96;54.43
5938;DHT22;2994;51.220;4.412;2023-06-22T03:34:11;22.95;54.54
5938;DHT22;2994;51.220;4.412;2023-06-22T03:36:36;22.93;54.98
5938;DHT22;2994;51.220;4.412;2023-06-22T03:39:02;22.95;54.92
5938;DHT22;2994;51.220;4.412;2023-06-22T03:41:27;22.94;55.07
5938;DHT22;2994;51.220;4.412;2023-06-22T03:43:53;22.94;55.15
5938;DHT22;2994;51.220;4.412;2023-06-22T03:46:18;22.95;55.45
5938;DHT22;2994;51.220;4.412;2023-06-22T03:48:45;22.94;55.71
5938;DHT22;2994;51.220;4.412;2023-06-22T03:51:10;22.94;55.97
5938;DHT22;2994;51.220;4.412;2023-06-22T03:53:36;22.96;56.00
5938;DHT22;2994;51.220;4.412;2023-06-22T03:56:01;22.96;56.39
5938;DHT22;2994;51.220;4.412;2023-06-22T03:58:26;22.95;56.46
5938;DHT22;2994;51.220;4.412;2023-06-22T04:00:57;22.95;56.24
5938;DHT22;2994;51.220;4.412;2023-06-22T04:03:23;22.95;56.34
5938;DHT22;2994;51.220;4.412;2023-06-22T04:05:48;22.96;56.60
5938;DHT22;2994;51.220;4.412;2023-06-22T04:08:14;22.94;56.53
5938;DHT22;2994;51.220;4.412;2023-06-22T04:10:40;22.95;56.71
5938;DHT22;2994;51.220;4.412;2023-06-22T04:13:05;22.94;56.72
5938;DHT22;2994;51.220;4.412;2023-06-22T04:15:31;22.94;57.05
5938;DHT22;2994;51.220;4.412;2023-06-22T04:17:56;22.95;57.10
5938;DHT22;2994;51.220;4.412;2023-06-22T04:20:22;22.94;57.13
5938;DHT22;2994;51.220;4.412;2023-06-22T04:22:51;22.95;57.20
5938;DHT22;2994;51.220;4.412;2023-06-22T04:25:17;22.94;57.31
5938;DHT22;2994;51.220;4.412;2023-06-22T04:27:42;22.96;57.19
5938;DHT22;2994;51.220;4.412;2023-06-22T04:30:08;22.96;57.39
5938;DHT22;2994;51.220;4.412;2023-06-22T04:32:34;22.96;57.30
5938;DHT22;2994;51.220;4.412;2023-06-22T04:35:02;22.97;57.47
5938;DHT22;2994;51.220;4.412;2023-06-22T04:37:29;22.94;57.18
5938;DHT22;2994;51.220;4.412;2023-06-22T04:39:55;22.94;57.19
5938;DHT22;2994;51.220;4.412;2023-06-22T04:42:20;22.95;57.45
5938;DHT22;2994;51.220;4.412;2023-06-22T04:44:46;22.94;57.64
5938;DHT22;2994;51.220;4.412;2023-06-22T04:47:11;22.96;57.67
5938;DHT22;2994;51.220;4.412;2023-06-22T04:49:37;22.97;58.09
5938;DHT22;2994;51.220;4.412;2023-06-22T04:52:11;22.96;57.67
5938;DHT22;2994;51.220;4.412;2023-06-22T04:54:39;22.95;57.83
5938;DHT22;2994;51.220;4.412;2023-06-22T04:57:07;22.95;57.87
5938;DHT22;2994;51.220;4.412;2023-06-22T04:59:37;22.95;58.35
5938;DHT22;2994;51.220;4.412;2023-06-22T05:02:04;22.97;58.09
5938;DHT22;2994;51.220;4.412;2023-06-22T05:04:31;22.98;57.90
5938;DHT22;2994;51.220;4.412;2023-06-22T05:07:01;23.00;58.00
5938;DHT22;2994;51.220;4.412;2023-06-22T05:09:26;23.01;58.39
5938;DHT22;2994;51.220;4.412;2023-06-22T05:11:52;23.03;58.32
5938;DHT22;2994;51.220;4.412;2023-06-22T05:14:18;23.05;58.06
5938;DHT22;2994;51.220;4.412;2023-06-22T05:16:45;23.09;58.52
5938;DHT22;2994;51.220;4.412;2023-06-22T05:19:10;23.12;58.39
5938;DHT22;2994;51.220;4.412;2023-06-22T05:21:36;23.18;58.03
5938;DHT22;2994;51.220;4.412;2023-06-22T05:24:02;23.24;58.10
5938;DHT22;2994;51.220;4.412;2023-06-22T05:26:29;23.26;58.04
5938;DHT22;2994;51.220;4.412;2023-06-22T05:28:55;23.32;58.25
5938;DHT22;2994;51.220;4.412;2023-06-22T05:31:21;23.37;58.15
5938;DHT22;2994;51.220;4.412;2023-06-22T05:33:47;23.39;57.66
5938;DHT22;2994;51.220;4.412;2023-06-22T05:36:13;23.45;57.65
5938;DHT22;2994;51.220;4.412;2023-06-22T05:38:39;23.49;57.93
5938;DHT22;2994;51.220;4.412;2023-06-22T05:41:05;23.52;57.70
5938;DHT22;2994;51.220;4.412;2023-06-22T05:43:31;23.58;57.42
5938;DHT22;2994;51.220;4.412;2023-06-22T05:45:57;23.59;57.40
5938;DHT22;2994;51.220;4.412;2023-06-22T05:48:23;23.65;57.35
5938;DHT22;2994;51.220;4.412;2023-06-22T05:50:49;23.69;57.02
5938;DHT22;2994;51.220;4.412;2023-06-22T05:53:14;23.69;56.86
5938;DHT22;2994;51.220;4.412;2023-06-22T05:55:40;23.74;57.10
5938;DHT22;2994;51.220;4.412;2023-06-22T05:58:06;23.77;57.35
5938;DHT22;2994;51.220;4.412;2023-06-22T06:00:31;23.84;57.68
5938;DHT22;2994;51.220;4.412;2023-06-22T06:02:57;23.87;57.68
5938;DHT22;2994;51.220;4.412;2023-06-22T06:05:32;23.91;57.80
5938;DHT22;2994;51.220;4.412;2023-06-22T06:07:59;23.95;57.35
5938;DHT22;2994;51.220;4.412;2023-06-22T06:10:25;23.98;56.74
5938;DHT22;2994;51.220;4.412;2023-06-22T06:12:50;24.00;57.46
5938;DHT22;2994;51.220;4.412;2023-06-22T06:15:16;24.03;57.24
5938;DHT22;2994;51.220;4.412;2023-06-22T06:17:48;24.08;56.94
5938;DHT22;2994;51.220;4.412;2023-06-22T06:20:15;24.12;56.82
5938;DHT22;2994;51.220;4.412;2023-06-22T06:22:40;23.99;57.08
5938;DHT22;2994;51.220;4.412;2023-06-22T06:25:08;24.12;56.64
5938;DHT22;2994;51.220;4.412;2023-06-22T06:27:33;24.17;56.82
5938;DHT22;2994;51.220;4.412;2023-06-22T06:29:59;24.24;56.73
5938;DHT22;2994;51.220;4.412;2023-06-22T06:32:24;24.26;56.21
5938;DHT22;2994;51.220;4.412;2023-06-22T06:34:50;24.32;57.04
5938;DHT22;2994;51.220;4.412;2023-06-22T06:37:16;24.35;56.90
5938;DHT22;2994;51.220;4.412;2023-06-22T06:39:41;24.41;57.53
5938;DHT22;2994;51.220;4.412;2023-06-22T06:42:07;24.44;57.17
5938;DHT22;2994;51.220;4.412;2023-06-22T06:44:32;24.46;56.21
5938;DHT22;2994;51.220;4.412;2023-06-22T06:46:58;24.48;56.06
5938;DHT22;2994;51.220;4.412;2023-06-22T06:49:23;24.51;56.39
5938;DHT22;2994;51.220;4.412;2023-06-22T06:51:48;24.55;56.53
5938;DHT22;2994;51.220;4.412;2023-06-22T06:54:14;24.58;55.90
5938;DHT22;2994;51.220;4.412;2023-06-22T06:56:39;24.60;56.45
5938;DHT22;2994;51.220;4.412;2023-06-22T06:59:05;24.63;57.19
5938;DHT22;2994;51.220;4.412;2023-06-22T07:01:30;24.64;56.41
5938;DHT22;2994;51.220;4.412;2023-06-22T07:03:59;24.66;56.61
5938;DHT22;2994;51.220;4.412;2023-06-22T07:06:25;24.69;55.73
5938;DHT22;2994;51.220;4.412;2023-06-22T07:08:55;24.69;56.57
5938;DHT22;2994;51.220;4.412;2023-06-22T07:11:20;24.71;56.34
5938;DHT22;2994;51.220;4.412;2023-06-22T07:13:46;24.74;56.61
5938;DHT22;2994;51.220;4.412;2023-06-22T07:16:11;24.75;55.72
5938;DHT22;2994;51.220;4.412;2023-06-22T07:18:36;24.77;55.61
5938;DHT22;2994;51.220;4.412;2023-06-22T07:21:04;24.78;55.48
5938;DHT22;2994;51.220;4.412;2023-06-22T07:23:31;24.78;56.55
5938;DHT22;2994;51.220;4.412;2023-06-22T07:25:57;24.83;55.49
5938;DHT22;2994;51.220;4.412;2023-06-22T07:28:22;24.82;55.51
5938;DHT22;2994;51.220;4.412;2023-06-22T07:30:47;24.79;56.20
5938;DHT22;2994;51.220;4.412;2023-06-22T07:33:13;24.85;55.60
5938;DHT22;2994;51.220;4.412;2023-06-22T07:35:38;24.86;55.83
5938;DHT22;2994;51.220;4.412;2023-06-22T07:38:04;24.85;55.81
5938;DHT22;2994;51.220;4.412;2023-06-22T07:40:30;24.86;55.94
5938;DHT22;2994;51.220;4.412;2023-06-22T07:42:55;24.88;56.73
5938;DHT22;2994;51.220;4.412;2023-06-22T07:45:21;24.91;56.42
5938;DHT22;2994;51.220;4.412;2023-06-22T07:47:46;24.92;56.26
5938;DHT22;2994;51.220;4.412;2023-06-22T07:50:12;24.95;56.41
5938;DHT22;2994;51.220;4.412;2023-06-22T07:52:37;24.97;56.46
5938;DHT22;2994;51.220;4.412;2023-06-22T07:55:03;25.03;55.98
5938;DHT22;2994;51.220;4.412;2023-06-22T07:57:29;24.99;56.39
5938;DHT22;2994;51.220;4.412;2023-06-22T07:59:59;24.91;56.43
5938;DHT22;2994;51.220;4.412;2023-06-22T08:02:26;24.93;56.06
5938;DHT22;2994;51.220;4.412;2023-06-22T08:04:51;24.94;55.62
5938;DHT22;2994;51.220;4.412;2023-06-22T08:07:17;24.92;55.89
5938;DHT22;2994;51.220;4.412;2023-06-22T08:09:47;24.88;55.90
5938;DHT22;2994;51.220;4.412;2023-06-22T08:12:13;24.87;56.13
5938;DHT22;2994;51.220;4.412;2023-06-22T08:14:39;24.84;56.16
5938;DHT22;2994;51.220;4.412;2023-06-22T08:17:04;24.86;56.16
5938;DHT22;2994;51.220;4.412;2023-06-22T08:19:30;24.84;56.24
5938;DHT22;2994;51.220;4.412;2023-06-22T08:21:56;24.85;56.29
5938;DHT22;2994;51.220;4.412;2023-06-22T08:24:22;24.86;57.59
5938;DHT22;2994;51.220;4.412;2023-06-22T08:26:47;24.86;56.98
5938;DHT22;2994;51.220;4.412;2023-06-22T08:29:13;24.83;56.87
5938;DHT22;2994;51.220;4.412;2023-06-22T08:31:39;24.88;57.39
5938;DHT22;2994;51.220;4.412;2023-06-22T08:34:05;24.88;56.65
5938;DHT22;2994;51.220;4.412;2023-06-22T08:36:30;24.88;57.12
5938;DHT22;2994;51.220;4.412;2023-06-22T08:39:00;24.89;57.49
5938;DHT22;2994;51.220;4.412;2023-06-22T08:41:27;24.91;57.94
5938;DHT22;2994;51.220;4.412;2023-06-22T08:43:52;24.91;57.36
5938;DHT22;2994;51.220;4.412;2023-06-22T08:46:19;24.94;57.66
5938;DHT22;2994;51.220;4.412;2023-06-22T08:48:48;24.97;57.49
5938;DHT22;2994;51.220;4.412;2023-06-22T08:51:14;24.98;57.84
5938;DHT22;2994;51.220;4.412;2023-06-22T08:53:39;24.99;57.98
5938;DHT22;2994;51.220;4.412;2023-06-22T08:56:05;25.02;57.92
5938;DHT22;2994;51.220;4.412;2023-06-22T08:58:30;25.03;57.95
5938;DHT22;2994;51.220;4.412;2023-06-22T09:00:55;25.04;56.68
5938;DHT22;2994;51.220;4.412;2023-06-22T09:03:21;25.03;56.86
5938;DHT22;2994;51.220;4.412;2023-06-22T09:05:46;25.03;57.40
5938;DHT22;2994;51.220;4.412;2023-06-22T09:08:12;25.04;57.46
5938;DHT22;2994;51.220;4.412;2023-06-22T09:10:37;25.05;57.94
5938;DHT22;2994;51.220;4.412;2023-06-22T09:13:03;25.06;58.10
5938;DHT22;2994;51.220;4.412;2023-06-22T09:15:28;25.05;56.80
5938;DHT22;2994;51.220;4.412;2023-06-22T09:17:54;25.03;57.00
5938;DHT22;2994;51.220;4.412;2023-06-22T09:20:20;25.05;57.90
5938;DHT22;2994;51.220;4.412;2023-06-22T09:22:45;25.04;57.32
5938;DHT22;2994;51.220;4.412;2023-06-22T09:25:11;25.03;57.71
5938;DHT22;2994;51.220;4.412;2023-06-22T09:27:37;25.04;57.87
5938;DHT22;2994;51.220;4.412;2023-06-22T09:30:04;25.03;57.95
5938;DHT22;2994;51.220;4.412;2023-06-22T09:32:29;25.01;57.77
5938;DHT22;2994;51.220;4.412;2023-06-22T09:34:55;24.97;58.11
5938;DHT22;2994;51.220;4.412;2023-06-22T09:37:20;24.95;58.65
5938;DHT22;2994;51.220;4.412;2023-06-22T09:39:45;24.98;58.13
5938;DHT22;2994;51.220;4.412;2023-06-22T09:42:11;24.97;58.63
5938;DHT22;2994;51.220;4.412;2023-06-22T09:44:38;24.91;58.45
5938;DHT22;2994;51.220;4.412;2023-06-22T09:47:04;24.91;58.84
5938;DHT22;2994;51.220;4.412;2023-06-22T09:49:29;24.92;58.90
5938;DHT22;2994;51.220;4.412;2023-06-22T09:51:55;24.93;58.81
5938;DHT22;2994;51.220;4.412;2023-06-22T09:54:20;24.95;58.06
5938;DHT22;2994;51.220;4.412;2023-06-22T09:56:46;24.91;58.53
5938;DHT22;2994;51.220;4.412;2023-06-22T09:59:12;24.90;58.76
5938;DHT22;2994;51.220;4.412;2023-06-22T10:01:37;24.89;59.50
5938;DHT22;2994;51.220;4.412;2023-06-22T10:04:03;24.87;59.97
5938;DHT22;2994;51.220;4.412;2023-06-22T10:06:28;24.86;60.18
5938;DHT22;2994;51.220;4.412;2023-06-22T10:08:53;24.83;59.73
5938;DHT22;2994;51.220;4.412;2023-06-22T10:11:19;24.80;60.52
5938;DHT22;2994;51.220;4.412;2023-06-22T10:13:44;24.78;60.76
5938;DHT22;2994;51.220;4.412;2023-06-22T10:16:10;24.75;61.60
5938;DHT22;2994;51.220;4.412;2023-06-22T10:18:36;24.71;61.98
5938;DHT22;2994;51.220;4.412;2023-06-22T10:21:02;24.65;61.69
5938;DHT22;2994;51.220;4.412;2023-06-22T10:23:27;24.63;62.16
5938;DHT22;2994;51.220;4.412;2023-06-22T10:25:53;24.59;62.67
5938;DHT22;2994;51.220;4.412;2023-06-22T10:28:18;24.56;63.30
5938;DHT22;2994;51.220;4.412;2023-06-22T10:30:44;24.50;64.08
5938;DHT22;2994;51.220;4.412;2023-06-22T10:33:10;24.46;64.75
5938;DHT22;2994;51.220;4.412;2023-06-22T10:35:36;24.42;65.08
5938;DHT22;2994;51.220;4.412;2023-06-22T10:38:05;24.36;65.62
5938;DHT22;2994;51.220;4.412;2023-06-22T10:40:31;24.29;65.24
5938;DHT22;2994;51.220;4.412;2023-06-22T10:42:56;24.26;65.88
5938;DHT22;2994;51.220;4.412;2023-06-22T10:45:22;24.19;66.13
5938;DHT22;2994;51.220;4.412;2023-06-22T10:47:47;24.15;65.57
5938;DHT22;2994;51.220;4.412;2023-06-22T10:50:13;24.13;66.80
5938;DHT22;2994;51.220;4.412;2023-06-22T10:52:39;24.10;67.48
5938;DHT22;2994;51.220;4.412;2023-06-22T10:55:05;24.10;67.71
5938;DHT22;2994;51.220;4.412;2023-06-22T10:57:31;24.09;68.16
5938;DHT22;2994;51.220;4.412;2023-06-22T10:59:56;24.06;68.48
5938;DHT22;2994;51.220;4.412;2023-06-22T11:02:22;24.03;68.35
5938;DHT22;2994;51.220;4.412;2023-06-22T11:04:48;23.99;67.87
5938;DHT22;2994;51.220;4.412;2023-06-22T11:07:15;24.00;68.92
5938;DHT22;2994;51.220;4.412;2023-06-22T11:09:43;23.97;68.27
5938;DHT22;2994;51.220;4.412;2023-06-22T11:12:08;23.94;68.14
5938;DHT22;2994;51.220;4.412;2023-06-22T11:14:34;23.96;68.83
5938;DHT22;2994;51.220;4.412;2023-06-22T11:16:59;23.95;69.74
5938;DHT22;2994;51.220;4.412;2023-06-22T11:19:25;23.92;69.76
5938;DHT22;2994;51.220;4.412;2023-06-22T11:21:50;23.90;68.91
5938;DHT22;2994;51.220;4.412;2023-06-22T11:24:16;23.88;68.82
5938;DHT22;2994;51.220;4.412;2023-06-22T11:26:42;23.89;69.65
5938;DHT22;2994;51.220;4.412;2023-06-22T11:29:08;23.91;69.80
5938;DHT22;2994;51.220;4.412;2023-06-22T11:31:34;23.90;70.08
5938;DHT22;2994;51.220;4.412;2023-06-22T11:34:00;23.89;68.66
5938;DHT22;2994;51.220;4.412;2023-06-22T11:36:26;23.87;69.48
5938;DHT22;2994;51.220;4.412;2023-06-22T11:38:51;23.86;69.95
5938;DHT22;2994;51.220;4.412;2023-06-22T11:41:17;23.86;69.61
5938;DHT22;2994;51.220;4.412;2023-06-22T11:43:42;23.84;69.21
5938;DHT22;2994;51.220;4.412;2023-06-22T11:46:08;23.82;68.66
5938;DHT22;2994;51.220;4.412;2023-06-22T11:48:33;23.77;68.01
5938;DHT22;2994;51.220;4.412;2023-06-22T11:50:58;23.76;67.65
5938;DHT22;2994;51.220;4.412;2023-06-22T11:53:26;23.79;68.16
5938;DHT22;2994;51.220;4.412;2023-06-22T11:55:52;23.81;68.82
5938;DHT22;2994;51.220;4.412;2023-06-22T11:58:19;23.76;68.95
5938;DHT22;2994;51.220;4.412;2023-06-22T12:00:44;23.72;68.77
5938;DHT22;2994;51.220;4.412;2023-06-22T12:03:10;23.71;69.49
5938;DHT22;2994;51.220;4.412;2023-06-22T12:05:36;23.69;69.78
5938;DHT22;2994;51.220;4.412;2023-06-22T12:08:02;23.70;70.30
5938;DHT22;2994;51.220;4.412;2023-06-22T12:10:27;23.68;69.81
5938;DHT22;2994;51.220;4.412;2023-06-22T12:12:56;23.64;70.71
5938;DHT22;2994;51.220;4.412;2023-06-22T12:15:23;23.64;70.42
5938;DHT22;2994;51.220;4.412;2023-06-22T12:17:48;23.59;70.60
5938;DHT22;2994;51.220;4.412;2023-06-22T12:20:14;23.57;71.07
5938;DHT22;2994;51.220;4.412;2023-06-22T12:22:40;23.53;70.38
5938;DHT22;2994;51.220;4.412;2023-06-22T12:25:06;23.51;69.52
5938;DHT22;2994;51.220;4.412;2023-06-22T12:27:32;23.46;70.14
5938;DHT22;2994;51.220;4.412;2023-06-22T12:29:57;23.31;70.48
5938;DHT22;2994;51.220;4.412;2023-06-22T12:32:23;23.31;70.38
5938;DHT22;2994;51.220;4.412;2023-06-22T12:34:48;23.28;70.33
5938;DHT22;2994;51.220;4.412;2023-06-22T12:37:14;23.26;70.24
5938;DHT22;2994;51.220;4.412;2023-06-22T12:39:40;23.22;70.48
5938;DHT22;2994;51.220;4.412;2023-06-22T12:42:07;23.22;70.84
5938;DHT22;2994;51.220;4.412;2023-06-22T12:44:34;23.18;70.55
5938;DHT22;2994;51.220;4.412;2023-06-22T12:46:59;23.17;70.62
5938;DHT22;2994;51.220;4.412;2023-06-22T12:49:25;23.14;70.63
5938;DHT22;2994;51.220;4.412;2023-06-22T12:51:50;23.14;70.68
5938;DHT22;2994;51.220;4.412;2023-06-22T12:54:16;23.12;70.68
5938;DHT22;2994;51.220;4.412;2023-06-22T12:56:41;23.10;70.64
5938;DHT22;2994;51.220;4.412;2023-06-22T12:59:09;23.09;70.91
5938;DHT22;2994;51.220;4.412;2023-06-22T13:01:34;23.11;71.41
5938;DHT22;2994;51.220;4.412;2023-06-22T13:03:59;23.10;71.23
5938;DHT22;2994;51.220;4.412;2023-06-22T13:06:25;23.07;71.51
5938;DHT22;2994;51.220;4.412;2023-06-22T13:08:51;22.99;70.74
5938;DHT22;2994;51.220;4.412;2023-06-22T13:11:16;22.99;70.95
5938;DHT22;2994;51.220;4.412;2023-06-22T13:13:44;22.98;71.46
5938;DHT22;2994;51.220;4.412;2023-06-22T13:16:10;22.95;72.20
5938;DHT22;2994;51.220;4.412;2023-06-22T13:18:35;22.91;71.16
5938;DHT22;2994;51.220;4.412;2023-06-22T13:21:04;22.87;71.65
5938;DHT22;2994;51.220;4.412;2023-06-22T13:23:30;22.86;72.16
5938;DHT22;2994;51.220;4.412;2023-06-22T13:25:55;22.85;72.65
5938;DHT22;2994;51.220;4.412;2023-06-22T13:28:21;22.87;72.67
5938;DHT22;2994;51.220;4.412;2023-06-22T13:30:47;22.86;72.49
5938;DHT22;2994;51.220;4.412;2023-06-22T13:33:16;22.84;72.26
5938;DHT22;2994;51.220;4.412;2023-06-22T13:35:42;22.83;73.07
5938;DHT22;2994;51.220;4.412;2023-06-22T13:38:10;22.82;73.06
5938;DHT22;2994;51.220;4.412;2023-06-22T13:40:36;22.77;73.04
5938;DHT22;2994;51.220;4.412;2023-06-22T13:43:06;22.80;73.06
5938;DHT22;2994;51.220;4.412;2023-06-22T13:45:32;22.78;73.23
5938;DHT22;2994;51.220;4.412;2023-06-22T13:47:57;22.78;73.09
5938;DHT22;2994;51.220;4.412;2023-06-22T13:50:23;22.78;73.09
5938;DHT22;2994;51.220;4.412;2023-06-22T13:52:48;22.76;73.48
5938;DHT22;2994;51.220;4.412;2023-06-22T13:55:14;22.78;73.53
5938;DHT22;2994;51.220;4.412;2023-06-22T13:57:40;22.79;73.53
5938;DHT22;2994;51.220;4.412;2023-06-22T14:00:07;22.78;73.36
5938;DHT22;2994;51.220;4.412;2023-06-22T14:02:37;22.78;73.67
5938;DHT22;2994;51.220;4.412;2023-06-22T14:05:03;22.70;73.77
5938;DHT22;2994;51.220;4.412;2023-06-22T14:07:29;22.76;73.66
5938;DHT22;2994;51.220;4.412;2023-06-22T14:09:57;22.77;73.81
5938;DHT22;2994;51.220;4.412;2023-06-22T14:12:23;22.80;74.08
5938;DHT22;2994;51.220;4.412;2023-06-22T14:14:48;22.82;73.98
5938;DHT22;2994;51.220;4.412;2023-06-22T14:17:14;22.83;73.90
5938;DHT22;2994;51.220;4.412;2023-06-22T14:19:39;22.85;74.13
5938;DHT22;2994;51.220;4.412;2023-06-22T14:22:05;22.80;74.47
5938;DHT22;2994;51.220;4.412;2023-06-22T14:24:31;22.85;73.63
5938;DHT22;2994;51.220;4.412;2023-06-22T14:26:56;22.86;73.61
5938;DHT22;2994;51.220;4.412;2023-06-22T14:29:22;22.87;73.43
5938;DHT22;2994;51.220;4.412;2023-06-22T14:31:48;22.87;73.31
5938;DHT22;2994;51.220;4.412;2023-06-22T14:34:15;22.88;73.35
5938;DHT22;2994;51.220;4.412;2023-06-22T14:36:41;22.90;73.31
5938;DHT22;2994;51.220;4.412;2023-06-22T14:39:06;22.87;73.61
5938;DHT22;2994;51.220;4.412;2023-06-22T14:41:31;22.86;74.09
5938;DHT22;2994;51.220;4.412;2023-06-22T14:43:57;22.86;73.13
5938;DHT22;2994;51.220;4.412;2023-06-22T14:46:22;22.88;73.57
5938;DHT22;2994;51.220;4.412;2023-06-22T14:48:48;22.91;73.62
5938;DHT22;2994;51.220;4.412;2023-06-22T14:51:14;22.85;73.31
5938;DHT22;2994;51.220;4.412;2023-06-22T14:53:40;22.91;73.71
5938;DHT22;2994;51.220;4.412;2023-06-22T14:56:05;22.88;73.32
5938;DHT22;2994;51.220;4.412;2023-06-22T14:58:31;22.91;73.06
5938;DHT22;2994;51.220;4.412;2023-06-22T15:01:01;22.90;73.32
5938;DHT22;2994;51.220;4.412;2023-06-22T15:03:27;22.91;72.99
5938;DHT22;2994;51.220;4.412;2023-06-22T15:05:54;22.85;73.20
5938;DHT22;2994;51.220;4.412;2023-06-22T15:08:20;22.87;73.13
5938;DHT22;2994;51.220;4.412;2023-06-22T15:10:46;22.88;73.01
5938;DHT22;2994;51.220;4.412;2023-06-22T15:13:11;22.87;73.63
5938;DHT22;2994;51.220;4.412;2023-06-22T15:15:37;22.87;73.80
5938;DHT22;2994;51.220;4.412;2023-06-22T15:18:02;22.90;73.71
5938;DHT22;2994;51.220;4.412;2023-06-22T15:20:28;22.92;73.92
5938;DHT22;2994;51.220;4.412;2023-06-22T15:22:53;22.93;74.28
5938;DHT22;2994;51.220;4.412;2023-06-22T15:25:20;22.92;73.81
5938;DHT22;2994;51.220;4.412;2023-06-22T15:27:45;22.88;74.67
5938;DHT22;2994;51.220;4.412;2023-06-22T15:30:11;22.92;74.05
5938;DHT22;2994;51.220;4.412;2023-06-22T15:32:36;22.83;74.44
5938;DHT22;2994;51.220;4.412;2023-06-22T15:35:03;22.81;74.86
5938;DHT22;2994;51.220;4.412;2023-06-22T15:37:29;22.85;74.41
5938;DHT22;2994;51.220;4.412;2023-06-22T15:39:54;22.90;74.89
5938;DHT22;2994;51.220;4.412;2023-06-22T15:42:21;22.87;74.71
5938;DHT22;2994;51.220;4.412;2023-06-22T15:44:47;22.84;74.76
5938;DHT22;2994;51.220;4.412;2023-06-22T15:47:12;22.84;75.11
5938;DHT22;2994;51.220;4.412;2023-06-22T15:49:37;22.91;74.75
5938;DHT22;2994;51.220;4.412;2023-06-22T15:52:03;22.93;75.10
5938;DHT22;2994;51.220;4.412;2023-06-22T15:54:29;22.95;75.10
5938;DHT22;2994;51.220;4.412;2023-06-22T15:56:54;22.95;75.15